Shinsei Maru — JD2188 — position and weather

sailwx.info

Track history (hours):
 
Tides and Currents Weather Stations Pressure Air Temp Water Temp Dewpoint Dewpoint Depression Visibility Wind Speed Wind Dir Waves Ship Positions

Shinsei Maru

Last reported at 2014-Jul-20 14:23 UTC. Time now 2014-Jul-22 14:56 UTC.
Position N 34°52' E 139°49'.

Length 104 m.

Type: Tanker. MMSI: 431301775.

Date/timePositionNaut miles runAvg speedWind from/ knotsBaromVisibWave heightAir tempDewpointWater temp
2014-Jul-20 14:23N 34°52' E 139°49'1214.0
2014-Jul-20 13:33N 35°02' E 139°42'1413.6
2014-Jul-20 12:34N 35°15' E 139°46'1111.1
2014-Jul-20 11:34N 35°26' E 139°46'1312.8
2014-Jul-20 10:33N 35°31' E 140°01'2 1.5
2014-Jul-20 09:32N 35°31' E 140°02'0 0.0
2014-Jul-20 08:32N 35°31' E 140°02'0 0.0
2014-Jul-20 07:32N 35°31' E 140°02'0 0.0
2014-Jul-20 06:32N 35°31' E 140°03'0 0.0
2014-Jul-20 05:31N 35°31' E 140°02'0 0.1
2014-Jul-20 04:34N 35°31' E 140°02'1010.2
2014-Jul-20 03:34N 35°28' E 139°50'1211.8
2014-Jul-20 02:33N 35°16' E 139°46'1313.3
2014-Jul-20 01:33N 35°03' E 139°45'1210.5
2014-Jul-20 00:23N 34°52' E 139°52'1113.4
2014-Jul-19 23:33N 34°57' E 140°04'1413.8
2014-Jul-19 22:33N 35°03' E 140°19'1414.2
2014-Jul-19 21:33N 35°12' E 140°33'1413.8
2014-Jul-19 20:30N 35°24' E 140°42'1614.2
2014-Jul-19 19:22N 35°37' E 140°54'3 0.1
2014-Jul-18 13:20N 35°34' E 140°52'1113.1
2014-Jul-18 12:32N 35°25' E 140°45'5712.8
2014-Jul-18 08:04N 34°51' E 139°48'713.5
2014-Jul-18 07:32N 34°57' E 139°43'1313.5
2014-Jul-18 06:33N 35°10' E 139°45'1312.6
2014-Jul-18 05:33N 35°22' E 139°42'9 9.0
2014-Jul-18 04:31N 35°31' E 139°46'0 0.0
2014-Jul-18 03:28N 35°31' E 139°46'0 0.0
2014-Jul-18 02:31N 35°31' E 139°46'0 0.0
2014-Jul-18 01:28N 35°31' E 139°46'0 0.0
2014-Jul-18 00:32N 35°31' E 139°46'0 0.0
2014-Jul-17 23:29N 35°31' E 139°46'0 0.0
2014-Jul-17 22:29N 35°31' E 139°46'4 3.9
2014-Jul-17 21:33N 35°29' E 139°42'7 7.4
2014-Jul-17 20:33N 35°22' E 139°45'1111.0
2014-Jul-17 19:34N 35°11' E 139°47'1313.3
2014-Jul-17 18:34N 35°01' E 139°37'17 0.5
2014-Jul-16 11:17N 34°56' E 139°17'912.5
2014-Jul-16 10:33N 35°01' E 139°26'1212.1
2014-Jul-16 09:33N 35°06' E 139°39'1110.7
2014-Jul-16 08:33N 35°15' E 139°46'1010.4
2014-Jul-16 07:33N 35°25' E 139°44'6 5.8
2014-Jul-16 06:31N 35°31' E 139°46'0 0.0
2014-Jul-16 05:31N 35°31' E 139°46'0 0.0
2014-Jul-16 04:31N 35°31' E 139°46'0 0.0
2014-Jul-16 03:31N 35°31' E 139°46'0 0.0
2014-Jul-16 02:32N 35°31' E 139°46'0 0.0
2014-Jul-16 01:32N 35°31' E 139°46'0 0.0
2014-Jul-16 00:32N 35°31' E 139°46'0 0.0
2014-Jul-15 23:31N 35°31' E 139°46'0 0.1
2014-Jul-15 22:31N 35°31' E 139°46'1 0.8
2014-Jul-15 21:34N 35°30' E 139°46'0 0.1
2014-Jul-15 20:31N 35°30' E 139°46'0 0.0
2014-Jul-15 19:28N 35°30' E 139°46'0 0.0
2014-Jul-15 18:28N 35°30' E 139°46'0 0.1
2014-Jul-15 17:31N 35°30' E 139°46'0 0.0
2014-Jul-15 16:28N 35°30' E 139°46'0 0.0
2014-Jul-15 15:33N 35°30' E 139°46'0 0.0
2014-Jul-15 14:33N 35°30' E 139°46'0 0.0
2014-Jul-15 13:33N 35°30' E 139°46'0 0.1
2014-Jul-15 12:33N 35°30' E 139°46'0 0.0
2014-Jul-15 11:33N 35°30' E 139°46'0 0.0
2014-Jul-15 10:33N 35°30' E 139°46'0 0.0
2014-Jul-15 09:33N 35°30' E 139°46'0 0.0
2014-Jul-15 08:33N 35°30' E 139°46'0 0.0
2014-Jul-15 07:33N 35°30' E 139°46'0 0.0
2014-Jul-15 06:33N 35°30' E 139°46'0 0.0
2014-Jul-15 05:33N 35°30' E 139°46'0 0.0
2014-Jul-15 04:33N 35°30' E 139°46'0 0.0
2014-Jul-15 03:30N 35°30' E 139°46'0 0.0
2014-Jul-15 02:31N 35°30' E 139°46'0 0.0
2014-Jul-15 01:31N 35°30' E 139°46'0 0.0
2014-Jul-15 00:31N 35°30' E 139°46'1 0.9
2014-Jul-14 23:33N 35°30' E 139°45'7 6.1
2014-Jul-14 22:30N 35°24' E 139°45'0 0.0
2014-Jul-14 21:33N 35°24' E 139°45'0 0.0
2014-Jul-14 20:33N 35°24' E 139°45'0 0.0
2014-Jul-14 19:33N 35°24' E 139°45'0 0.0
2014-Jul-14 18:33N 35°24' E 139°45'0 0.0
2014-Jul-14 17:33N 35°24' E 139°45'0 0.0
2014-Jul-14 16:33N 35°24' E 139°45'1 1.1
2014-Jul-14 15:34N 35°23' E 139°44'1212.1
2014-Jul-14 14:33N 35°11' E 139°47'1313.3
2014-Jul-14 13:33N 35°00' E 139°37'1515.1
2014-Jul-14 12:32N 34°51' E 139°22'22112.3
2014-Jul-13 18:32N 34°00' E 135°02'8 0.5
2014-Jul-13 00:23N 34°08' E 135°07'0 0.4
2014-Jul-12 23:32N 34°08' E 135°07'0 0.0
2014-Jul-12 22:32N 34°08' E 135°07'1 1.2
2014-Jul-12 21:33N 34°09' E 135°06'1211.9
2014-Jul-12 20:33N 34°19' E 134°59'1313.3
2014-Jul-12 19:33N 34°28' E 135°11'1312.8
2014-Jul-12 18:33N 34°33' E 135°25'0 0.3
2014-Jul-12 17:24N 34°33' E 135°26'0 0.0
2014-Jul-12 16:30N 34°33' E 135°26'0 0.0
2014-Jul-12 15:30N 34°33' E 135°26'0 0.0
2014-Jul-12 14:24N 34°33' E 135°26'0 0.0
2014-Jul-12 13:24N 34°33' E 135°26'0 0.0
2014-Jul-12 12:31N 34°33' E 135°26'0 0.0
2014-Jul-12 11:33N 34°33' E 135°26'0 0.0
2014-Jul-12 10:33N 34°33' E 135°26'0 0.0
2014-Jul-12 09:33N 34°33' E 135°26'0 0.0
2014-Jul-12 08:33N 34°33' E 135°26'1 1.3
2014-Jul-12 07:33N 34°33' E 135°24'6 5.6
2014-Jul-12 06:31N 34°31' E 135°18'0 0.0
2014-Jul-12 05:29N 34°31' E 135°18'0 0.0
2014-Jul-12 03:23N 34°31' E 135°18'0 0.0
2014-Jul-12 01:29N 34°31' E 135°17'0 0.0
2014-Jul-12 00:29N 34°31' E 135°17'0 0.0
2014-Jul-11 23:23N 34°31' E 135°18'0 0.1
2014-Jul-11 22:29N 34°31' E 135°18'0 0.0
2014-Jul-11 21:23N 34°31' E 135°18'0 0.0
2014-Jul-11 20:29N 34°31' E 135°18'0 0.0
2014-Jul-11 19:29N 34°31' E 135°18'0 0.0
2014-Jul-11 18:23N 34°31' E 135°18'0 0.0
2014-Jul-11 17:23N 34°31' E 135°18'0 0.0
2014-Jul-11 16:29N 34°31' E 135°18'0 0.0
2014-Jul-11 15:29N 34°31' E 135°18'0 0.0
2014-Jul-11 14:23N 34°31' E 135°18'0 0.0
2014-Jul-11 13:31N 34°31' E 135°18'0 0.1
2014-Jul-11 12:33N 34°31' E 135°18'0 0.0
2014-Jul-11 11:26N 34°31' E 135°18'0 0.0
2014-Jul-11 10:32N 34°31' E 135°18'0 0.0
2014-Jul-11 09:32N 34°31' E 135°18'0 0.0
2014-Jul-11 08:32N 34°31' E 135°18'0 0.0
2014-Jul-11 07:25N 34°31' E 135°18'0 0.0
2014-Jul-11 06:07N 34°31' E 135°18'0 0.0
2014-Jul-11 03:25N 34°31' E 135°18'0 0.0
2014-Jul-11 00:25N 34°31' E 135°18'0 0.0
2014-Jul-10 23:31N 34°31' E 135°18'0 0.0
2014-Jul-10 22:25N 34°31' E 135°18'0 0.0
2014-Jul-10 21:33N 34°31' E 135°18'0 0.0
2014-Jul-10 20:30N 34°31' E 135°18'0 0.0
2014-Jul-10 19:24N 34°31' E 135°18'0 0.0
2014-Jul-10 18:32N 34°31' E 135°18'0 0.0
2014-Jul-10 17:32N 34°31' E 135°18'0 0.0
2014-Jul-10 16:32N 34°31' E 135°18'0 0.0
2014-Jul-10 15:14N 34°31' E 135°18'0 0.0
2014-Jul-10 14:30N 34°31' E 135°18'  
Track history (hours):
 
Tides and Currents Weather Stations Pressure Air Temp Water Temp Dewpoint Dewpoint Depression Visibility Wind Speed Wind Dir Waves Ship Positions

Shinsei Maru

Last reported at 2014-Jul-20 14:23 UTC. Time now 2014-Jul-22 14:56 UTC.
Position N 34°52' E 139°49'.

Length 104 m.

Type: Tanker. MMSI: 431301775.

Date/timePositionNaut miles runAvg speedWind from/ knotsBaromVisibWave heightAir tempDewpointWater temp
2014-Jul-20 14:23N 34°52' E 139°49'1214.0
2014-Jul-20 13:33N 35°02' E 139°42'1413.6
2014-Jul-20 12:34N 35°15' E 139°46'1111.1
2014-Jul-20 11:34N 35°26' E 139°46'1312.8
2014-Jul-20 10:33N 35°31' E 140°01'2 1.5
2014-Jul-20 09:32N 35°31' E 140°02'0 0.0
2014-Jul-20 08:32N 35°31' E 140°02'0 0.0
2014-Jul-20 07:32N 35°31' E 140°02'0 0.0
2014-Jul-20 06:32N 35°31' E 140°03'0 0.0
2014-Jul-20 05:31N 35°31' E 140°02'0 0.1
2014-Jul-20 04:34N 35°31' E 140°02'1010.2
2014-Jul-20 03:34N 35°28' E 139°50'1211.8
2014-Jul-20 02:33N 35°16' E 139°46'1313.3
2014-Jul-20 01:33N 35°03' E 139°45'1210.5
2014-Jul-20 00:23N 34°52' E 139°52'1113.4
2014-Jul-19 23:33N 34°57' E 140°04'1413.8
2014-Jul-19 22:33N 35°03' E 140°19'1414.2
2014-Jul-19 21:33N 35°12' E 140°33'1413.8
2014-Jul-19 20:30N 35°24' E 140°42'1614.2
2014-Jul-19 19:22N 35°37' E 140°54'3 0.1
2014-Jul-18 13:20N 35°34' E 140°52'1113.1
2014-Jul-18 12:32N 35°25' E 140°45'5712.8
2014-Jul-18 08:04N 34°51' E 139°48'713.5
2014-Jul-18 07:32N 34°57' E 139°43'1313.5
2014-Jul-18 06:33N 35°10' E 139°45'1312.6
2014-Jul-18 05:33N 35°22' E 139°42'9 9.0
2014-Jul-18 04:31N 35°31' E 139°46'0 0.0
2014-Jul-18 03:28N 35°31' E 139°46'0 0.0
2014-Jul-18 02:31N 35°31' E 139°46'0 0.0
2014-Jul-18 01:28N 35°31' E 139°46'0 0.0
2014-Jul-18 00:32N 35°31' E 139°46'0 0.0
2014-Jul-17 23:29N 35°31' E 139°46'0 0.0
2014-Jul-17 22:29N 35°31' E 139°46'4 3.9
2014-Jul-17 21:33N 35°29' E 139°42'7 7.4
2014-Jul-17 20:33N 35°22' E 139°45'1111.0
2014-Jul-17 19:34N 35°11' E 139°47'1313.3
2014-Jul-17 18:34N 35°01' E 139°37'17 0.5
2014-Jul-16 11:17N 34°56' E 139°17'912.5
2014-Jul-16 10:33N 35°01' E 139°26'1212.1
2014-Jul-16 09:33N 35°06' E 139°39'1110.7
2014-Jul-16 08:33N 35°15' E 139°46'1010.4
2014-Jul-16 07:33N 35°25' E 139°44'6 5.8
2014-Jul-16 06:31N 35°31' E 139°46'0 0.0
2014-Jul-16 05:31N 35°31' E 139°46'0 0.0
2014-Jul-16 04:31N 35°31' E 139°46'0 0.0
2014-Jul-16 03:31N 35°31' E 139°46'0 0.0
2014-Jul-16 02:32N 35°31' E 139°46'0 0.0
2014-Jul-16 01:32N 35°31' E 139°46'0 0.0
2014-Jul-16 00:32N 35°31' E 139°46'0 0.0
2014-Jul-15 23:31N 35°31' E 139°46'0 0.1
2014-Jul-15 22:31N 35°31' E 139°46'1 0.8
2014-Jul-15 21:34N 35°30' E 139°46'0 0.1
2014-Jul-15 20:31N 35°30' E 139°46'0 0.0
2014-Jul-15 19:28N 35°30' E 139°46'0 0.0
2014-Jul-15 18:28N 35°30' E 139°46'0 0.1
2014-Jul-15 17:31N 35°30' E 139°46'0 0.0
2014-Jul-15 16:28N 35°30' E 139°46'0 0.0
2014-Jul-15 15:33N 35°30' E 139°46'0 0.0
2014-Jul-15 14:33N 35°30' E 139°46'0 0.0
2014-Jul-15 13:33N 35°30' E 139°46'0 0.1
2014-Jul-15 12:33N 35°30' E 139°46'0 0.0
2014-Jul-15 11:33N 35°30' E 139°46'0 0.0
2014-Jul-15 10:33N 35°30' E 139°46'0 0.0
2014-Jul-15 09:33N 35°30' E 139°46'0 0.0
2014-Jul-15 08:33N 35°30' E 139°46'0 0.0
2014-Jul-15 07:33N 35°30' E 139°46'0 0.0
2014-Jul-15 06:33N 35°30' E 139°46'0 0.0
2014-Jul-15 05:33N 35°30' E 139°46'0 0.0
2014-Jul-15 04:33N 35°30' E 139°46'0 0.0
2014-Jul-15 03:30N 35°30' E 139°46'0 0.0
2014-Jul-15 02:31N 35°30' E 139°46'0 0.0
2014-Jul-15 01:31N 35°30' E 139°46'0 0.0
2014-Jul-15 00:31N 35°30' E 139°46'1 0.9
2014-Jul-14 23:33N 35°30' E 139°45'7 6.1
2014-Jul-14 22:30N 35°24' E 139°45'0 0.0
2014-Jul-14 21:33N 35°24' E 139°45'0 0.0
2014-Jul-14 20:33N 35°24' E 139°45'0 0.0
2014-Jul-14 19:33N 35°24' E 139°45'0 0.0
2014-Jul-14 18:33N 35°24' E 139°45'0 0.0
2014-Jul-14 17:33N 35°24' E 139°45'0 0.0
2014-Jul-14 16:33N 35°24' E 139°45'1 1.1
2014-Jul-14 15:34N 35°23' E 139°44'1212.1
2014-Jul-14 14:33N 35°11' E 139°47'1313.3
2014-Jul-14 13:33N 35°00' E 139°37'1515.1
2014-Jul-14 12:32N 34°51' E 139°22'22112.3
2014-Jul-13 18:32N 34°00' E 135°02'8 0.5
2014-Jul-13 00:23N 34°08' E 135°07'0 0.4
2014-Jul-12 23:32N 34°08' E 135°07'0 0.0
2014-Jul-12 22:32N 34°08' E 135°07'1 1.2
2014-Jul-12 21:33N 34°09' E 135°06'1211.9
2014-Jul-12 20:33N 34°19' E 134°59'1313.3
2014-Jul-12 19:33N 34°28' E 135°11'1312.8
2014-Jul-12 18:33N 34°33' E 135°25'0 0.3
2014-Jul-12 17:24N 34°33' E 135°26'0 0.0
2014-Jul-12 16:30N 34°33' E 135°26'0 0.0
2014-Jul-12 15:30N 34°33' E 135°26'0 0.0
2014-Jul-12 14:24N 34°33' E 135°26'0 0.0
2014-Jul-12 13:24N 34°33' E 135°26'0 0.0
2014-Jul-12 12:31N 34°33' E 135°26'0 0.0
2014-Jul-12 11:33N 34°33' E 135°26'0 0.0
2014-Jul-12 10:33N 34°33' E 135°26'0 0.0
2014-Jul-12 09:33N 34°33' E 135°26'0 0.0
2014-Jul-12 08:33N 34°33' E 135°26'1 1.3
2014-Jul-12 07:33N 34°33' E 135°24'6 5.6
2014-Jul-12 06:31N 34°31' E 135°18'0 0.0
2014-Jul-12 05:29N 34°31' E 135°18'0 0.0
2014-Jul-12 03:23N 34°31' E 135°18'0 0.0
2014-Jul-12 01:29N 34°31' E 135°17'0 0.0
2014-Jul-12 00:29N 34°31' E 135°17'0 0.0
2014-Jul-11 23:23N 34°31' E 135°18'0 0.1
2014-Jul-11 22:29N 34°31' E 135°18'0 0.0
2014-Jul-11 21:23N 34°31' E 135°18'0 0.0
2014-Jul-11 20:29N 34°31' E 135°18'0 0.0
2014-Jul-11 19:29N 34°31' E 135°18'0 0.0
2014-Jul-11 18:23N 34°31' E 135°18'0 0.0
2014-Jul-11 17:23N 34°31' E 135°18'0 0.0
2014-Jul-11 16:29N 34°31' E 135°18'0 0.0
2014-Jul-11 15:29N 34°31' E 135°18'0 0.0
2014-Jul-11 14:23N 34°31' E 135°18'0 0.0
2014-Jul-11 13:31N 34°31' E 135°18'0 0.1
2014-Jul-11 12:33N 34°31' E 135°18'0 0.0
2014-Jul-11 11:26N 34°31' E 135°18'0 0.0
2014-Jul-11 10:32N 34°31' E 135°18'0 0.0
2014-Jul-11 09:32N 34°31' E 135°18'0 0.0
2014-Jul-11 08:32N 34°31' E 135°18'0 0.0
2014-Jul-11 07:25N 34°31' E 135°18'0 0.0
2014-Jul-11 06:07N 34°31' E 135°18'0 0.0
2014-Jul-11 03:25N 34°31' E 135°18'0 0.0
2014-Jul-11 00:25N 34°31' E 135°18'0 0.0
2014-Jul-10 23:31N 34°31' E 135°18'0 0.0
2014-Jul-10 22:25N 34°31' E 135°18'0 0.0
2014-Jul-10 21:33N 34°31' E 135°18'0 0.0
2014-Jul-10 20:30N 34°31' E 135°18'0 0.0
2014-Jul-10 19:24N 34°31' E 135°18'0 0.0
2014-Jul-10 18:32N 34°31' E 135°18'0 0.0
2014-Jul-10 17:32N 34°31' E 135°18'0 0.0
2014-Jul-10 16:32N 34°31' E 135°18'0 0.0
2014-Jul-10 15:14N 34°31' E 135°18'0 0.0
2014-Jul-10 14:30N 34°31' E 135°18'  

Dump ship's entire track history